createdAt,value
2017-11-22T00:01:16.193Z,7.90
2017-11-22T00:03:43.669Z,7.90
2017-11-22T00:06:11.892Z,7.70
2017-11-22T00:08:39.900Z,7.70
2017-11-22T00:11:07.354Z,7.70
2017-11-22T00:13:35.561Z,7.50
2017-11-22T00:16:06.655Z,7.60
2017-11-22T00:18:35.306Z,7.50
2017-11-22T00:21:03.342Z,7.50
2017-11-22T00:23:30.828Z,7.50
2017-11-22T00:25:59.079Z,7.40
2017-11-22T00:28:27.281Z,7.40
2017-11-22T00:30:54.765Z,7.40
2017-11-22T00:33:22.235Z,7.30
2017-11-22T00:35:49.682Z,7.20
2017-11-22T00:38:17.152Z,7.10
2017-11-22T00:40:44.595Z,7.10
2017-11-22T00:43:12.981Z,7.00
2017-11-22T00:45:40.449Z,7.00
2017-11-22T00:48:07.889Z,6.90
2017-11-22T00:50:35.361Z,6.80
2017-11-22T00:53:02.822Z,6.70
2017-11-22T00:55:30.266Z,6.70
2017-11-22T00:57:57.746Z,6.70
2017-11-22T01:00:25.385Z,6.80
2017-11-22T01:02:57.257Z,6.70
2017-11-22T01:05:24.707Z,6.80
2017-11-22T01:07:52.466Z,6.70
2017-11-22T01:10:19.942Z,6.70
2017-11-22T01:12:47.411Z,6.70
2017-11-22T01:15:15.057Z,6.60
2017-11-22T01:17:43.262Z,6.50
2017-11-22T01:20:14.962Z,6.50
2017-11-22T01:22:42.409Z,6.40
2017-11-22T01:25:11.653Z,6.20
2017-11-22T01:27:39.122Z,6.20
2017-11-22T01:30:06.565Z,6.10
2017-11-22T01:32:37.502Z,5.90
2017-11-22T01:35:06.575Z,5.80
2017-11-22T01:37:34.129Z,5.80
2017-11-22T01:40:01.569Z,5.70
2017-11-22T01:42:29.045Z,5.70
2017-11-22T01:44:56.539Z,5.70
2017-11-22T01:47:24.574Z,5.60
2017-11-22T01:49:52.047Z,5.50
2017-11-22T01:52:19.809Z,5.40
2017-11-22T01:54:47.538Z,5.40
2017-11-22T01:57:15.006Z,5.30
2017-11-22T01:59:42.454Z,5.40
2017-11-22T02:02:09.922Z,5.40
2017-11-22T02:04:37.374Z,5.30
2017-11-22T02:07:04.940Z,5.20
2017-11-22T02:09:33.321Z,5.20
2017-11-22T02:12:00.761Z,5.20
2017-11-22T02:14:28.230Z,5.30
2017-11-22T02:16:55.674Z,5.30
2017-11-22T02:19:26.533Z,5.40
2017-11-22T02:21:53.970Z,5.30
2017-11-22T02:24:23.284Z,5.10
2017-11-22T02:26:50.750Z,5.10
2017-11-22T02:29:18.513Z,5.10
2017-11-22T02:31:46.014Z,5.10
2017-11-22T02:34:13.451Z,5.10
2017-11-22T02:36:41.684Z,5.00
2017-11-22T02:39:09.294Z,5.00
2017-11-22T02:41:36.730Z,5.00
2017-11-22T02:44:04.191Z,4.90
2017-11-22T02:46:31.637Z,4.80
2017-11-22T02:49:10.153Z,4.90
2017-11-22T02:51:37.598Z,4.90
2017-11-22T02:54:05.063Z,4.90
2017-11-22T02:56:32.537Z,4.80
2017-11-22T02:58:59.991Z,4.80
2017-11-22T03:01:27.459Z,4.90
2017-11-22T03:04:03.158Z,4.80
2017-11-22T03:06:30.638Z,4.80
2017-11-22T03:08:58.078Z,4.80
2017-11-22T03:11:25.757Z,4.70
2017-11-22T03:13:53.310Z,4.80
2017-11-22T03:16:21.728Z,4.70
2017-11-22T03:18:49.200Z,4.60
2017-11-22T03:21:16.634Z,4.70
2017-11-22T03:23:44.113Z,4.70
2017-11-22T03:26:11.575Z,4.80
2017-11-22T03:28:39.375Z,4.70
2017-11-22T03:31:06.852Z,4.70
2017-11-22T03:33:34.335Z,4.80
2017-11-22T03:36:02.554Z,4.80
2017-11-22T03:38:31.257Z,4.70
2017-11-22T03:40:58.702Z,4.60
2017-11-22T03:43:26.350Z,4.60
2017-11-22T03:45:54.704Z,4.40
2017-11-22T03:48:22.150Z,4.40
2017-11-22T03:50:59.914Z,4.40
2017-11-22T03:53:33.321Z,4.40
2017-11-22T03:56:00.796Z,4.40
2017-11-22T03:58:29.014Z,4.50
2017-11-22T04:00:56.470Z,4.40
2017-11-22T04:03:23.945Z,4.50
2017-11-22T04:05:55.603Z,4.40
2017-11-22T04:08:26.887Z,4.50
2017-11-22T04:10:54.524Z,4.40
2017-11-22T04:13:21.989Z,4.40
2017-11-22T04:15:49.435Z,4.40
2017-11-22T04:18:19.785Z,4.40
2017-11-22T04:21:01.716Z,4.30
2017-11-22T04:23:33.729Z,4.30
2017-11-22T04:26:01.346Z,4.30
2017-11-22T04:28:29.575Z,4.40
2017-11-22T04:30:57.030Z,4.30
2017-11-22T04:33:24.515Z,4.20
2017-11-22T04:35:51.958Z,4.20
2017-11-22T04:38:19.605Z,4.10
2017-11-22T04:40:47.115Z,4.10
2017-11-22T04:43:14.551Z,4.00
2017-11-22T04:45:42.766Z,4.10
2017-11-22T04:48:10.232Z,4.10
2017-11-22T04:50:37.762Z,4.10
2017-11-22T04:53:05.262Z,4.00
2017-11-22T04:55:33.734Z,3.90
2017-11-22T04:58:02.112Z,3.90
2017-11-22T05:00:29.623Z,3.90
2017-11-22T05:02:57.278Z,3.90
2017-11-22T05:05:24.720Z,3.90
2017-11-22T05:07:55.317Z,3.90
2017-11-22T05:10:22.762Z,4.00
2017-11-22T05:12:50.413Z,4.00
2017-11-22T05:15:17.873Z,4.00
2017-11-22T05:17:46.099Z,4.10
2017-11-22T05:20:13.551Z,4.10
2017-11-22T05:22:41.034Z,4.10
2017-11-22T05:25:08.505Z,4.10
2017-11-22T05:27:35.957Z,4.10
2017-11-22T05:30:03.393Z,4.10
2017-11-22T05:32:31.662Z,4.20
2017-11-22T05:35:00.448Z,4.20
2017-11-22T05:37:28.079Z,4.10
2017-11-22T05:39:55.553Z,4.20
2017-11-22T05:42:22.993Z,4.10
2017-11-22T05:44:50.490Z,4.10
2017-11-22T05:47:17.951Z,4.00
2017-11-22T05:49:45.386Z,3.90
2017-11-22T05:52:17.273Z,3.90
2017-11-22T05:54:44.721Z,3.90
2017-11-22T05:57:12.202Z,3.90
2017-11-22T05:59:39.663Z,3.90
2017-11-22T06:02:07.124Z,3.80
2017-11-22T06:04:34.810Z,3.80
2017-11-22T06:07:06.593Z,3.80
2017-11-22T06:09:34.047Z,3.80
2017-11-22T06:12:01.490Z,3.80
2017-11-22T06:14:28.949Z,3.70
2017-11-22T06:16:56.396Z,3.70
2017-11-22T06:19:23.865Z,3.60
2017-11-22T06:21:52.814Z,3.60
2017-11-22T06:24:20.266Z,3.60
2017-11-22T06:26:47.731Z,3.60
2017-11-22T06:29:15.179Z,3.50
2017-11-22T06:31:42.635Z,3.50
2017-11-22T06:34:10.097Z,3.40
2017-11-22T06:36:37.605Z,3.50
2017-11-22T06:39:05.969Z,3.40
2017-11-22T06:41:33.466Z,3.40
2017-11-22T06:44:01.202Z,3.30
2017-11-22T06:46:28.669Z,3.30
2017-11-22T06:48:56.125Z,3.30
2017-11-22T06:51:23.590Z,3.40
2017-11-22T06:53:54.203Z,3.40
2017-11-22T06:56:29.505Z,3.40
2017-11-22T06:58:56.982Z,3.50
2017-11-22T07:01:24.749Z,3.60
2017-11-22T07:03:54.901Z,3.60
2017-11-22T07:06:23.138Z,3.80
2017-11-22T07:08:50.789Z,3.80
2017-11-22T07:11:18.251Z,3.90
2017-11-22T07:13:45.705Z,4.00
2017-11-22T07:16:18.899Z,4.00
2017-11-22T07:18:46.384Z,4.00
2017-11-22T07:21:13.838Z,3.90
2017-11-22T07:23:41.291Z,3.90
2017-11-22T07:26:08.866Z,3.80
2017-11-22T07:28:36.317Z,3.80
2017-11-22T07:31:04.989Z,3.90
2017-11-22T07:33:32.438Z,4.00
2017-11-22T07:36:05.634Z,4.00
2017-11-22T07:38:33.086Z,4.10
2017-11-22T07:41:07.968Z,4.00
2017-11-22T07:43:37.322Z,4.10
2017-11-22T07:46:11.390Z,4.10
2017-11-22T07:48:38.994Z,4.10
2017-11-22T07:51:12.265Z,4.10
2017-11-22T07:53:43.063Z,4.10
2017-11-22T07:56:10.600Z,4.20
2017-11-22T07:58:38.063Z,4.20
2017-11-22T08:01:05.529Z,4.30
2017-11-22T08:03:35.078Z,4.50
2017-11-22T08:06:03.466Z,4.60
2017-11-22T08:08:30.917Z,4.60
2017-11-22T08:10:59.341Z,4.60
2017-11-22T08:13:27.129Z,4.60
2017-11-22T08:15:54.634Z,4.60
2017-11-22T08:18:22.109Z,4.70
2017-11-22T08:20:50.337Z,4.70
2017-11-22T08:23:17.817Z,4.80
2017-11-22T08:25:46.208Z,4.90
2017-11-22T08:28:13.651Z,4.90
2017-11-22T08:30:43.027Z,5.00
2017-11-22T08:33:11.291Z,5.10
2017-11-22T08:35:38.807Z,5.20
2017-11-22T08:38:06.281Z,5.30
2017-11-22T08:40:33.836Z,5.40
2017-11-22T08:43:06.842Z,5.40
2017-11-22T08:45:35.982Z,5.60
2017-11-22T08:48:03.448Z,5.60
2017-11-22T08:50:30.904Z,5.70
2017-11-22T08:52:58.366Z,5.80
2017-11-22T08:55:32.108Z,5.90
2017-11-22T08:58:06.105Z,6.00
2017-11-22T09:00:34.566Z,6.10
2017-11-22T09:03:03.001Z,6.00
2017-11-22T09:05:30.478Z,6.10
2017-11-22T09:07:57.935Z,6.20
2017-11-22T09:10:25.407Z,6.20
2017-11-22T09:12:52.868Z,6.30
2017-11-22T09:15:21.779Z,6.40
2017-11-22T09:17:49.231Z,6.40
2017-11-22T09:20:16.670Z,6.50
2017-11-22T09:22:44.457Z,6.60
2017-11-22T09:25:16.530Z,6.80
2017-11-22T09:27:49.645Z,6.90
2017-11-22T09:30:17.127Z,6.90
2017-11-22T09:32:44.617Z,7.00
2017-11-22T09:35:12.085Z,7.10
2017-11-22T09:37:40.155Z,7.10
2017-11-22T09:40:07.590Z,7.20
2017-11-22T09:42:43.228Z,7.30
2017-11-22T09:45:10.704Z,7.50
2017-11-22T09:47:38.277Z,7.60
2017-11-22T09:50:06.595Z,7.70
2017-11-22T09:52:34.060Z,7.80
2017-11-22T09:55:01.530Z,7.90
2017-11-22T09:57:33.441Z,8.00
2017-11-22T10:00:01.518Z,8.20
2017-11-22T10:02:28.980Z,8.30
2017-11-22T10:04:56.578Z,8.40
2017-11-22T10:07:24.055Z,8.50
2017-11-22T10:09:51.502Z,8.60
2017-11-22T10:12:18.974Z,8.70
2017-11-22T10:14:46.715Z,8.80
2017-11-22T10:17:15.337Z,8.90
2017-11-22T10:19:43.707Z,9.00
2017-11-22T10:22:11.157Z,9.10
2017-11-22T10:24:44.477Z,9.10
2017-11-22T10:27:21.009Z,9.20
2017-11-22T10:29:48.501Z,9.30
2017-11-22T10:32:20.980Z,9.60
2017-11-22T10:34:48.432Z,9.60
2017-11-22T10:37:15.879Z,9.70
2017-11-22T10:39:43.351Z,9.80
2017-11-22T10:42:11.598Z,9.80
2017-11-22T10:44:42.910Z,9.80
2017-11-22T10:47:10.510Z,9.70
2017-11-22T10:49:37.954Z,9.70
2017-11-22T10:52:07.141Z,9.60
2017-11-22T10:54:34.595Z,9.50
2017-11-22T10:57:02.037Z,9.50
2017-11-22T10:59:29.485Z,9.50
2017-11-22T11:01:56.921Z,9.50
2017-11-22T11:04:26.099Z,9.40
2017-11-22T11:06:53.541Z,9.40
2017-11-22T11:09:20.999Z,9.50
2017-11-22T11:11:53.382Z,9.60
2017-11-22T11:14:20.815Z,9.60
2017-11-22T11:16:48.259Z,9.60
2017-11-22T11:19:15.741Z,9.60
2017-11-22T11:21:43.209Z,9.70
2017-11-22T11:24:10.666Z,9.70
2017-11-22T11:26:38.129Z,9.80
2017-11-22T11:29:06.073Z,9.80
2017-11-22T11:31:34.001Z,9.80
2017-11-22T11:34:01.445Z,9.80
2017-11-22T11:36:33.691Z,9.80
2017-11-22T11:39:02.828Z,9.80
2017-11-22T11:41:30.249Z,9.90
2017-11-22T11:44:04.652Z,9.90
2017-11-22T11:46:32.209Z,10.00
2017-11-22T11:49:00.210Z,10.00
2017-11-22T11:51:27.755Z,10.10
2017-11-22T11:53:55.216Z,10.10
2017-11-22T11:56:25.414Z,10.00
2017-11-22T11:58:52.853Z,10.00
2017-11-22T12:01:20.302Z,10.00
2017-11-22T12:03:47.770Z,10.00
2017-11-22T12:06:15.241Z,10.00
2017-11-22T12:08:42.698Z,10.10
2017-11-22T12:11:12.306Z,10.10
2017-11-22T12:13:43.140Z,10.10
2017-11-22T12:16:10.591Z,10.20
2017-11-22T12:18:39.746Z,10.30
2017-11-22T12:21:09.667Z,10.40
2017-11-22T12:23:37.197Z,10.40
2017-11-22T12:26:04.638Z,10.50
2017-11-22T12:28:35.563Z,10.60
2017-11-22T12:31:03.952Z,10.70
2017-11-22T12:33:31.593Z,10.80
2017-11-22T12:35:59.076Z,10.90
2017-11-22T12:38:26.553Z,11.00
2017-11-22T12:40:54.787Z,11.10
2017-11-22T12:43:31.769Z,11.10
2017-11-22T12:46:01.275Z,11.10
2017-11-22T12:48:28.743Z,11.10
2017-11-22T12:50:56.179Z,11.20
2017-11-22T12:53:24.571Z,11.20
2017-11-22T12:55:52.028Z,11.10
2017-11-22T12:58:19.499Z,11.10
2017-11-22T13:00:46.951Z,11.10
2017-11-22T13:03:14.557Z,11.00
2017-11-22T13:05:42.040Z,10.90
2017-11-22T13:08:09.627Z,11.00
2017-11-22T13:10:43.540Z,10.90
2017-11-22T13:13:11.174Z,11.00
2017-11-22T13:15:38.605Z,11.00
2017-11-22T13:18:06.617Z,11.00
2017-11-22T13:20:34.098Z,11.00
2017-11-22T13:23:01.535Z,11.00
2017-11-22T13:25:28.980Z,11.00
2017-11-22T13:27:56.447Z,11.10
2017-11-22T13:30:24.106Z,11.20
2017-11-22T13:32:52.266Z,11.30
2017-11-22T13:35:19.710Z,11.30
2017-11-22T13:37:47.404Z,11.40
2017-11-22T13:40:14.862Z,11.50
2017-11-22T13:42:47.237Z,11.60
2017-11-22T13:45:18.406Z,11.60
2017-11-22T13:47:46.158Z,11.70
2017-11-22T13:50:13.632Z,11.70
2017-11-22T13:52:41.590Z,11.80
2017-11-22T13:55:10.430Z,11.80
2017-11-22T13:57:37.905Z,11.80
2017-11-22T14:00:05.807Z,11.90
2017-11-22T14:02:34.172Z,11.70
2017-11-22T14:05:01.747Z,11.70
2017-11-22T14:07:29.585Z,11.70
2017-11-22T14:09:57.070Z,11.60
2017-11-22T14:12:26.222Z,11.50
2017-11-22T14:14:53.665Z,11.40
2017-11-22T14:17:21.149Z,11.30
2017-11-22T14:19:48.592Z,11.30
2017-11-22T14:22:16.090Z,11.20
2017-11-22T14:24:43.546Z,11.20
2017-11-22T14:27:13.903Z,11.10
2017-11-22T14:29:41.334Z,11.00
2017-11-22T14:32:09.668Z,11.00
2017-11-22T14:34:37.115Z,10.90
2017-11-22T14:37:04.578Z,10.90
2017-11-22T14:39:32.055Z,10.80
2017-11-22T14:41:59.506Z,10.80
2017-11-22T14:44:27.169Z,10.70
2017-11-22T14:46:54.674Z,10.70
2017-11-22T14:49:23.797Z,10.50
2017-11-22T14:51:51.254Z,10.40
2017-11-22T14:54:18.722Z,10.40
2017-11-22T14:56:46.166Z,10.30
2017-11-22T14:59:13.779Z,10.20
2017-11-22T15:01:44.603Z,10.10
2017-11-22T15:04:12.755Z,10.00
2017-11-22T15:06:40.438Z,9.90
2017-11-22T15:09:08.202Z,9.80
2017-11-22T15:11:38.103Z,9.70
2017-11-22T15:14:05.553Z,9.70
2017-11-22T15:16:36.575Z,9.60
2017-11-22T15:19:04.014Z,9.40
2017-11-22T15:21:32.698Z,9.30
2017-11-22T15:24:00.919Z,9.20
2017-11-22T15:26:28.407Z,9.10
2017-11-22T15:28:55.851Z,9.00
2017-11-22T15:31:23.576Z,9.00
2017-11-22T15:33:52.114Z,8.80
2017-11-22T15:36:20.338Z,8.60
2017-11-22T15:38:47.802Z,8.60
2017-11-22T15:41:15.275Z,8.60
2017-11-22T15:43:42.793Z,8.50
2017-11-22T15:46:10.778Z,8.40
2017-11-22T15:48:38.221Z,8.40
2017-11-22T15:51:05.666Z,8.40
2017-11-22T15:53:33.222Z,8.40
2017-11-22T15:56:00.862Z,8.30
2017-11-22T15:58:28.328Z,8.30
2017-11-22T16:00:55.790Z,8.20
2017-11-22T16:03:23.493Z,8.10
2017-11-22T16:05:51.062Z,8.00
2017-11-22T16:08:19.090Z,8.00
2017-11-22T16:10:46.558Z,8.00
2017-11-22T16:13:14.032Z,7.90
2017-11-22T16:15:41.481Z,7.80
2017-11-22T16:18:09.005Z,7.70
2017-11-22T16:20:36.441Z,7.70
2017-11-22T16:23:04.418Z,7.70
2017-11-22T16:25:32.552Z,7.70
2017-11-22T16:27:59.996Z,7.70
2017-11-22T16:30:27.658Z,7.80
2017-11-22T16:32:55.902Z,7.70
2017-11-22T16:35:23.366Z,7.70
2017-11-22T16:37:52.279Z,7.50
2017-11-22T16:40:19.974Z,7.50
2017-11-22T16:42:47.471Z,7.50
2017-11-22T16:45:14.990Z,7.50
2017-11-22T16:47:42.427Z,7.50
2017-11-22T16:50:10.856Z,7.40
2017-11-22T16:52:38.328Z,7.30
2017-11-22T16:55:05.806Z,7.30
2017-11-22T16:57:33.679Z,7.30
2017-11-22T17:00:01.116Z,7.30
2017-11-22T17:02:28.586Z,7.30
2017-11-22T17:04:56.095Z,7.30
2017-11-22T17:07:24.265Z,7.20
2017-11-22T17:09:51.757Z,7.20
2017-11-22T17:12:19.242Z,7.10
2017-11-22T17:14:46.693Z,6.90
2017-11-22T17:17:14.166Z,6.70
2017-11-22T17:19:41.610Z,6.60
2017-11-22T17:22:09.087Z,6.70
2017-11-22T17:24:36.563Z,6.80
2017-11-22T17:27:04.015Z,6.80
2017-11-22T17:29:31.524Z,6.70
2017-11-22T17:31:59.119Z,6.50
2017-11-22T17:34:27.856Z,6.40
2017-11-22T17:36:55.573Z,6.40
2017-11-22T17:39:23.081Z,6.30
2017-11-22T17:41:51.494Z,6.40
2017-11-22T17:44:19.172Z,6.30
2017-11-22T17:46:46.662Z,6.30
2017-11-22T17:49:14.121Z,6.20
2017-11-22T17:51:41.670Z,6.20
2017-11-22T17:54:09.197Z,6.20
2017-11-22T17:56:36.635Z,6.10
2017-11-22T17:59:05.824Z,6.00
2017-11-22T18:01:33.254Z,6.00
2017-11-22T18:04:04.754Z,5.90
2017-11-22T18:06:32.506Z,5.90
2017-11-22T18:09:00.810Z,6.00
2017-11-22T18:11:28.825Z,6.00
2017-11-22T18:13:56.305Z,6.00
2017-11-22T18:16:24.512Z,6.00
2017-11-22T18:18:51.966Z,6.00
2017-11-22T18:21:19.456Z,6.00
2017-11-22T18:23:47.016Z,6.00
2017-11-22T18:26:14.767Z,6.00
2017-11-22T18:28:43.233Z,6.00
2017-11-22T18:31:10.710Z,5.90
2017-11-22T18:33:38.796Z,5.90
2017-11-22T18:36:09.332Z,5.90
2017-11-22T18:38:36.814Z,5.80
2017-11-22T18:41:04.553Z,5.80
2017-11-22T18:43:32.594Z,5.80
2017-11-22T18:46:00.356Z,5.90
2017-11-22T18:48:28.060Z,5.80
2017-11-22T18:50:55.541Z,5.80
2017-11-22T18:53:23.062Z,5.80
2017-11-22T18:55:50.558Z,5.80
2017-11-22T18:58:18.194Z,5.80
2017-11-22T19:00:45.696Z,5.70
2017-11-22T19:03:13.180Z,5.70
2017-11-22T19:05:46.149Z,5.60
2017-11-22T19:08:13.905Z,5.60
2017-11-22T19:10:42.380Z,5.60
2017-11-22T19:13:10.095Z,5.50
2017-11-22T19:15:37.582Z,5.40
2017-11-22T19:18:05.079Z,5.40
2017-11-22T19:20:39.031Z,5.40
2017-11-22T19:23:07.004Z,5.40
2017-11-22T19:25:35.092Z,5.30
2017-11-22T19:28:02.826Z,5.20
2017-11-22T19:30:30.341Z,5.20
2017-11-22T19:32:57.803Z,5.20
2017-11-22T19:35:28.408Z,5.20
2017-11-22T19:37:56.480Z,5.10
2017-11-22T19:40:23.968Z,5.10
2017-11-22T19:42:51.409Z,5.10
2017-11-22T19:45:18.949Z,5.00
2017-11-22T19:47:46.609Z,4.90
2017-11-22T19:50:14.062Z,4.80
2017-11-22T19:52:41.514Z,4.80
2017-11-22T19:55:09.286Z,4.70
2017-11-22T19:57:37.021Z,4.70
2017-11-22T20:00:04.809Z,4.70
2017-11-22T20:02:32.358Z,4.80
2017-11-22T20:04:59.841Z,4.80
2017-11-22T20:07:38.962Z,4.70
2017-11-22T20:10:06.389Z,4.80
2017-11-22T20:12:33.953Z,4.70
2017-11-22T20:15:01.452Z,4.70
2017-11-22T20:17:29.155Z,4.60
2017-11-22T20:19:56.933Z,4.50
2017-11-22T20:22:24.695Z,4.50
2017-11-22T20:24:52.232Z,4.50
2017-11-22T20:27:19.677Z,4.50
2017-11-22T20:29:47.173Z,4.50
2017-11-22T20:32:15.449Z,4.60
2017-11-22T20:34:42.948Z,4.60
2017-11-22T20:37:10.599Z,4.60
2017-11-22T20:39:38.780Z,4.70
2017-11-22T20:42:06.291Z,4.60
2017-11-22T20:44:33.750Z,4.60
2017-11-22T20:47:02.094Z,4.50
2017-11-22T20:49:29.588Z,4.50
2017-11-22T20:52:01.244Z,4.50
2017-11-22T20:54:28.879Z,4.40
2017-11-22T20:56:56.369Z,4.30
2017-11-22T20:59:23.855Z,4.30
2017-11-22T21:01:51.733Z,4.20
2017-11-22T21:04:19.246Z,4.20
2017-11-22T21:06:51.209Z,4.20
2017-11-22T21:09:19.221Z,4.20
2017-11-22T21:11:47.338Z,4.20
2017-11-22T21:14:14.984Z,4.20
2017-11-22T21:16:43.433Z,4.20
2017-11-22T21:19:10.969Z,4.30
2017-11-22T21:21:38.617Z,4.20
2017-11-22T21:24:06.901Z,4.30
2017-11-22T21:26:34.339Z,4.30
2017-11-22T21:29:02.574Z,4.20
2017-11-22T21:31:31.884Z,4.10
2017-11-22T21:34:00.345Z,4.20
2017-11-22T21:36:27.850Z,4.20
2017-11-22T21:38:56.246Z,4.20
2017-11-22T21:41:24.660Z,4.20
2017-11-22T21:43:52.205Z,4.20
2017-11-22T21:46:21.176Z,4.20
2017-11-22T21:48:48.680Z,4.20
2017-11-22T21:51:16.222Z,4.20
2017-11-22T21:53:43.699Z,4.20
2017-11-22T21:56:14.932Z,4.20
2017-11-22T21:58:42.433Z,4.10
2017-11-22T22:01:09.932Z,4.00
2017-11-22T22:03:37.437Z,4.00
2017-11-22T22:06:05.153Z,3.90
2017-11-22T22:08:36.327Z,4.00
2017-11-22T22:11:03.800Z,4.10
2017-11-22T22:13:31.287Z,4.00
2017-11-22T22:15:59.361Z,3.90
2017-11-22T22:18:26.843Z,3.80
2017-11-22T22:20:54.356Z,3.80
2017-11-22T22:23:25.546Z,3.60
2017-11-22T22:25:53.027Z,3.60
2017-11-22T22:28:20.528Z,3.70
2017-11-22T22:30:49.607Z,3.70
2017-11-22T22:33:17.071Z,3.70
2017-11-22T22:35:44.840Z,3.70
2017-11-22T22:38:13.971Z,3.90
2017-11-22T22:40:41.480Z,3.80
2017-11-22T22:43:09.204Z,4.00
2017-11-22T22:45:36.751Z,4.10
2017-11-22T22:48:04.268Z,4.20
2017-11-22T22:50:32.618Z,4.20
2017-11-22T22:53:00.088Z,4.20
2017-11-22T22:55:34.663Z,4.10
2017-11-22T22:58:03.026Z,4.10
2017-11-22T23:00:30.458Z,4.00
2017-11-22T23:02:58.085Z,4.00
2017-11-22T23:05:25.592Z,4.00
2017-11-22T23:07:53.067Z,4.00
2017-11-22T23:10:20.519Z,4.00
2017-11-22T23:12:48.009Z,4.00
2017-11-22T23:15:15.514Z,4.00
2017-11-22T23:17:42.985Z,4.00
2017-11-22T23:20:12.126Z,3.90
2017-11-22T23:22:39.573Z,3.80
2017-11-22T23:25:11.441Z,3.90
2017-11-22T23:27:38.906Z,3.90
2017-11-22T23:30:06.586Z,3.90
2017-11-22T23:32:34.670Z,3.80
2017-11-22T23:35:02.880Z,3.80
2017-11-22T23:37:30.822Z,3.80
2017-11-22T23:40:05.376Z,3.80
2017-11-22T23:42:32.821Z,3.80
2017-11-22T23:45:00.338Z,3.70
2017-11-22T23:47:27.996Z,3.60
2017-11-22T23:49:57.173Z,3.50
2017-11-22T23:52:25.409Z,3.50
2017-11-22T23:55:05.197Z,3.60
2017-11-22T23:57:33.577Z,3.60
